Terminal Aerodrome Forecast
Issued by NWS

Home | Current Version | Previous Version | Graphics & Text | Print | Product List | Glossary On
Versions: 1 2 3 4 5 6 7 8 9 10 11 12 13 14 15 16 17
000
FTUS42 KMHX 260553
TAFOAJ
TAF
KOAJ 260553Z 2606/2706 01012G16KT P6SM OVC010
     FM260700 01012KT P6SM OVC008
     FM261400 36011G19KT P6SM OVC015
     FM261800 36014G22KT P6SM VCSH BKN025
      AMD LTD TO CLD VIS AND WIND=

USA.gov is the U.S. government's official web portal to all federal, state and local government web resources and services.